createdAt,value
2023-01-01T00:00:06.473Z,100.00
2023-01-01T00:02:37.008Z,100.00
2023-01-01T00:05:05.614Z,100.00
2023-01-01T00:07:34.444Z,100.00
2023-01-01T00:10:19.506Z,100.00
2023-01-01T00:12:47.087Z,100.00
2023-01-01T00:15:14.669Z,100.00
2023-01-01T00:17:42.443Z,100.00
2023-01-01T00:20:11.015Z,100.00
2023-01-01T00:22:56.293Z,100.00
2023-01-01T00:25:24.526Z,100.00
2023-01-01T00:27:52.679Z,100.00
2023-01-01T00:30:20.601Z,100.00
2023-01-01T00:32:55.693Z,100.00
2023-01-01T00:35:24.908Z,100.00
2023-01-01T00:37:54.767Z,100.00
2023-01-01T00:40:22.621Z,100.00
2023-01-01T00:42:50.540Z,100.00
2023-01-01T00:45:21.924Z,100.00
2023-01-01T00:47:50.243Z,100.00
2023-01-01T00:50:18.001Z,100.00
2023-01-01T00:52:45.492Z,100.00
2023-01-01T00:55:14.315Z,100.00
2023-01-01T00:57:41.979Z,100.00
2023-01-01T01:00:10.989Z,100.00
2023-01-01T01:02:38.729Z,100.00
2023-01-01T01:05:07.314Z,100.00
2023-01-01T01:07:36.552Z,100.00
2023-01-01T01:10:04.466Z,100.00
2023-01-01T01:12:34.442Z,100.00
2023-01-01T01:15:02.232Z,100.00
2023-01-01T01:17:30.352Z,100.00
2023-01-01T01:19:57.871Z,100.00
2023-01-01T01:22:28.680Z,100.00
2023-01-01T01:24:56.975Z,100.00
2023-01-01T01:27:24.611Z,100.00
2023-01-01T01:29:54.119Z,100.00
2023-01-01T01:32:21.770Z,100.00
2023-01-01T01:34:49.539Z,100.00
2023-01-01T01:37:17.419Z,100.00
2023-01-01T01:39:49.004Z,100.00
2023-01-01T01:42:19.494Z,100.00
2023-01-01T01:45:08.439Z,100.00
2023-01-01T01:47:40.403Z,100.00
2023-01-01T01:50:11.731Z,100.00
2023-01-01T01:52:42.458Z,100.00
2023-01-01T01:55:11.020Z,100.00
2023-01-01T01:57:40.098Z,100.00
2023-01-01T02:00:17.634Z,100.00
2023-01-01T02:02:52.353Z,100.00
2023-01-01T02:05:21.570Z,100.00
2023-01-01T02:07:50.563Z,100.00
2023-01-01T02:10:18.211Z,100.00
2023-01-01T02:12:45.886Z,100.00
2023-01-01T02:15:15.262Z,100.00
2023-01-01T02:17:53.395Z,100.00
2023-01-01T02:20:31.492Z,100.00
2023-01-01T02:23:32.573Z,100.00
2023-01-01T02:26:18.851Z,100.00
2023-01-01T02:28:56.517Z,100.00
2023-01-01T02:31:29.191Z,100.00
2023-01-01T02:34:02.422Z,100.00
2023-01-01T02:36:33.657Z,100.00
2023-01-01T02:39:06.028Z,100.00
2023-01-01T02:41:39.965Z,100.00
2023-01-01T02:44:08.794Z,100.00
2023-01-01T02:46:36.933Z,100.00
2023-01-01T02:49:10.307Z,100.00
2023-01-01T02:51:56.764Z,100.00
2023-01-01T02:54:34.114Z,100.00
2023-01-01T02:57:08.775Z,100.00
2023-01-01T03:00:06.564Z,100.00
2023-01-01T03:02:50.422Z,100.00
2023-01-01T03:05:26.580Z,100.00
2023-01-01T03:08:04.982Z,100.00
2023-01-01T03:10:41.912Z,100.00
2023-01-01T03:13:17.356Z,100.00
2023-01-01T03:15:59.732Z,100.00
2023-01-01T03:18:33.981Z,100.00
2023-01-01T03:21:05.256Z,100.00
2023-01-01T03:23:36.777Z,100.00
2023-01-01T03:26:09.454Z,100.00
2023-01-01T03:28:43.286Z,100.00
2023-01-01T03:31:18.770Z,100.00
2023-01-01T03:33:50.543Z,100.00
2023-01-01T03:36:22.888Z,100.00
2023-01-01T03:38:56.190Z,100.00
2023-01-01T03:41:28.126Z,100.00
2023-01-01T03:44:04.517Z,100.00
2023-01-01T03:46:36.942Z,100.00
2023-01-01T03:49:07.576Z,100.00
2023-01-01T03:51:55.235Z,100.00
2023-01-01T03:54:32.440Z,100.00
2023-01-01T03:57:07.101Z,100.00
2023-01-01T03:59:41.949Z,100.00
2023-01-01T04:02:14.994Z,100.00
2023-01-01T04:04:43.153Z,100.00
2023-01-01T04:07:15.268Z,100.00
2023-01-01T04:09:47.446Z,100.00
2023-01-01T04:12:16.846Z,100.00
2023-01-01T04:14:45.017Z,100.00
2023-01-01T04:17:14.568Z,100.00
2023-01-01T04:19:42.042Z,100.00
2023-01-01T04:22:09.575Z,100.00
2023-01-01T04:24:37.065Z,100.00
2023-01-01T04:27:05.030Z,100.00
2023-01-01T04:29:33.520Z,100.00
2023-01-01T04:32:01.000Z,100.00
2023-01-01T04:34:29.822Z,100.00
2023-01-01T04:36:57.293Z,100.00
2023-01-01T04:39:24.783Z,100.00
2023-01-01T04:41:52.286Z,100.00
2023-01-01T04:44:19.850Z,100.00
2023-01-01T04:46:47.359Z,100.00
2023-01-01T04:49:14.848Z,100.00
2023-01-01T04:51:43.746Z,100.00
2023-01-01T04:54:11.443Z,100.00
2023-01-01T04:56:38.973Z,100.00
2023-01-01T04:59:06.507Z,100.00
2023-01-01T05:01:34.201Z,100.00
2023-01-01T05:04:02.317Z,100.00
2023-01-01T05:06:30.076Z,100.00
2023-01-01T05:08:59.545Z,100.00
2023-01-01T05:11:28.828Z,100.00
2023-01-01T05:13:58.830Z,100.00
2023-01-01T05:16:28.593Z,100.00
2023-01-01T05:18:56.892Z,100.00
2023-01-01T05:21:26.243Z,100.00
2023-01-01T05:23:55.858Z,100.00
2023-01-01T05:26:28.254Z,100.00
2023-01-01T05:28:56.822Z,100.00
2023-01-01T05:31:27.519Z,100.00
2023-01-01T05:33:55.774Z,100.00
2023-01-01T05:36:25.333Z,100.00
2023-01-01T05:38:53.654Z,100.00
2023-01-01T05:41:22.513Z,100.00
2023-01-01T05:43:52.751Z,100.00
2023-01-01T05:46:21.424Z,100.00
2023-01-01T05:48:49.888Z,100.00
2023-01-01T05:51:19.512Z,100.00
2023-01-01T05:53:47.192Z,100.00
2023-01-01T05:56:15.632Z,100.00
2023-01-01T05:58:44.363Z,100.00
2023-01-01T06:01:16.081Z,100.00
2023-01-01T06:03:44.579Z,100.00
2023-01-01T06:06:14.114Z,100.00
2023-01-01T06:08:42.145Z,100.00
2023-01-01T06:11:12.309Z,100.00
2023-01-01T06:13:39.973Z,100.00
2023-01-01T06:16:08.479Z,100.00
2023-01-01T06:18:37.379Z,100.00
2023-01-01T06:21:06.581Z,100.00
2023-01-01T06:23:34.505Z,100.00
2023-01-01T06:26:07.116Z,100.00
2023-01-01T06:28:34.736Z,100.00
2023-01-01T06:31:02.563Z,100.00
2023-01-01T06:33:30.302Z,100.00
2023-01-01T06:35:59.870Z,100.00
2023-01-01T06:38:27.345Z,100.00
2023-01-01T06:40:58.408Z,100.00
2023-01-01T06:43:26.102Z,100.00
2023-01-01T06:46:04.062Z,100.00
2023-01-01T06:48:33.332Z,100.00
2023-01-01T06:51:07.054Z,100.00
2023-01-01T06:53:34.746Z,100.00
2023-01-01T06:56:02.389Z,100.00
2023-01-01T06:58:29.961Z,100.00
2023-01-01T07:01:08.372Z,100.00
2023-01-01T07:03:37.279Z,100.00
2023-01-01T07:06:07.364Z,100.00
2023-01-01T07:08:34.895Z,100.00
2023-01-01T07:11:02.797Z,100.00
2023-01-01T07:13:31.577Z,100.00
2023-01-01T07:15:59.475Z,100.00
2023-01-01T07:18:27.017Z,100.00
2023-01-01T07:20:56.391Z,100.00
2023-01-01T07:23:26.266Z,100.00
2023-01-01T07:25:54.893Z,100.00
2023-01-01T07:28:23.635Z,100.00
2023-01-01T07:30:52.455Z,100.00
2023-01-01T07:33:22.137Z,100.00
2023-01-01T07:35:49.733Z,100.00
2023-01-01T07:38:17.660Z,100.00
2023-01-01T07:40:46.562Z,100.00
2023-01-01T07:43:14.177Z,100.00
2023-01-01T07:45:42.023Z,100.00
2023-01-01T07:48:14.538Z,100.00
2023-01-01T07:50:42.387Z,100.00
2023-01-01T07:53:10.061Z,100.00
2023-01-01T07:55:37.800Z,100.00
2023-01-01T07:58:06.671Z,100.00
2023-01-01T08:00:34.192Z,100.00
2023-01-01T08:03:01.891Z,100.00
2023-01-01T08:05:29.518Z,100.00
2023-01-01T08:07:57.009Z,100.00
2023-01-01T08:10:24.704Z,100.00
2023-01-01T08:12:52.204Z,100.00
2023-01-01T08:15:21.020Z,100.00
2023-01-01T08:17:48.528Z,100.00
2023-01-01T08:20:16.112Z,100.00
2023-01-01T08:22:43.630Z,100.00
2023-01-01T08:25:11.128Z,100.00
2023-01-01T08:27:39.057Z,100.00
2023-01-01T08:30:07.693Z,100.00
2023-01-01T08:32:36.511Z,100.00
2023-01-01T08:35:04.064Z,100.00
2023-01-01T08:37:31.578Z,100.00
2023-01-01T08:39:59.114Z,100.00
2023-01-01T08:42:26.595Z,100.00
2023-01-01T08:44:54.104Z,100.00
2023-01-01T08:47:23.908Z,100.00
2023-01-01T08:49:52.969Z,100.00
2023-01-01T08:52:21.337Z,100.00
2023-01-01T08:54:48.849Z,100.00
2023-01-01T08:57:16.620Z,100.00
2023-01-01T08:59:44.104Z,100.00
2023-01-01T09:02:13.324Z,100.00
2023-01-01T09:04:40.961Z,100.00
2023-01-01T09:07:09.779Z,100.00
2023-01-01T09:09:37.269Z,100.00
2023-01-01T09:12:06.466Z,100.00
2023-01-01T09:14:34.978Z,94.35
2023-01-01T09:17:02.619Z,87.09
2023-01-01T09:19:30.120Z,82.95
2023-01-01T09:21:57.687Z,81.99
2023-01-01T09:24:26.560Z,80.14
2023-01-01T09:26:54.058Z,78.25
2023-01-01T09:29:21.816Z,80.25
2023-01-01T09:31:49.938Z,78.92
2023-01-01T09:34:18.004Z,78.23
2023-01-01T09:36:46.747Z,79.95
2023-01-01T09:39:16.349Z,80.86
2023-01-01T09:42:04.088Z,80.71
2023-01-01T09:44:50.770Z,78.76
2023-01-01T09:47:24.112Z,73.65
2023-01-01T09:49:56.092Z,71.98
2023-01-01T09:52:23.829Z,70.20
2023-01-01T09:54:56.806Z,72.26
2023-01-01T09:57:30.754Z,76.56
2023-01-01T10:00:00.411Z,80.07
2023-01-01T10:02:49.807Z,84.95
2023-01-01T10:05:32.382Z,86.37
2023-01-01T10:08:06.991Z,87.78
2023-01-01T10:10:41.181Z,86.15
2023-01-01T10:13:22.630Z,86.90
2023-01-01T10:15:57.395Z,86.93
2023-01-01T10:18:29.877Z,86.35
2023-01-01T10:21:03.651Z,85.53
2023-01-01T10:23:36.096Z,84.69
2023-01-01T10:26:09.576Z,83.82
2023-01-01T10:28:43.842Z,82.47
2023-01-01T10:31:17.194Z,81.91
2023-01-01T10:33:46.670Z,80.28
2023-01-01T10:36:16.855Z,80.76
2023-01-01T10:38:44.716Z,81.30
2023-01-01T10:41:19.261Z,82.11
2023-01-01T10:43:50.370Z,82.88
2023-01-01T10:46:29.575Z,85.01
2023-01-01T10:49:16.908Z,83.55
2023-01-01T10:51:46.841Z,82.46
2023-01-01T10:54:31.517Z,80.12
2023-01-01T10:56:59.380Z,77.98
2023-01-01T10:59:40.025Z,77.15
2023-01-01T11:02:17.973Z,77.12
2023-01-01T11:04:45.839Z,76.63
2023-01-01T11:07:22.329Z,74.72
2023-01-01T11:10:02.456Z,74.95
2023-01-01T11:15:35.611Z,74.08
2023-01-01T11:18:08.931Z,73.71
2023-01-01T11:20:36.473Z,75.79
2023-01-01T11:23:29.796Z,72.98
2023-01-01T11:25:59.945Z,75.41
2023-01-01T11:28:28.638Z,74.68
2023-01-01T11:31:06.400Z,72.79
2023-01-01T11:33:37.550Z,71.36
2023-01-01T11:36:06.860Z,69.35
2023-01-01T11:38:35.284Z,68.63
2023-01-01T11:41:05.787Z,67.67
2023-01-01T11:43:40.738Z,69.01
2023-01-01T11:46:13.081Z,67.77
2023-01-01T11:48:44.098Z,66.54
2023-01-01T11:51:28.593Z,68.42
2023-01-01T11:54:11.024Z,70.12
2023-01-01T11:56:39.061Z,68.88
2023-01-01T11:59:13.886Z,67.38
2023-01-01T12:01:47.956Z,63.65
2023-01-01T12:04:20.531Z,64.05
2023-01-01T12:06:54.079Z,67.48
2023-01-01T12:09:25.845Z,67.89
2023-01-01T12:11:58.558Z,67.85
2023-01-01T12:14:47.386Z,68.34
2023-01-01T12:17:24.242Z,67.61
2023-01-01T12:20:00.439Z,67.45
2023-01-01T12:22:28.195Z,64.61
2023-01-01T12:24:56.075Z,63.22
2023-01-01T12:27:37.879Z,60.75
2023-01-01T12:30:22.609Z,59.53
2023-01-01T12:33:08.492Z,58.30
2023-01-01T12:35:53.256Z,58.54
2023-01-01T12:38:40.695Z,58.00
2023-01-01T12:41:13.820Z,57.54
2023-01-01T12:43:51.178Z,57.87
2023-01-01T12:46:35.611Z,60.30
2023-01-01T12:49:20.876Z,62.07
2023-01-01T12:51:58.818Z,66.10
2023-01-01T12:54:44.636Z,67.68
2023-01-01T12:57:19.799Z,68.47
2023-01-01T12:59:50.749Z,68.89
2023-01-01T13:02:22.630Z,69.51
2023-01-01T13:04:56.279Z,69.11
2023-01-01T13:07:30.550Z,70.33
2023-01-01T13:10:03.965Z,69.45
2023-01-01T13:12:32.864Z,67.42
2023-01-01T13:15:00.548Z,64.59
2023-01-01T13:17:30.941Z,63.78
2023-01-01T13:20:15.438Z,61.57
2023-01-01T13:22:44.270Z,61.40
2023-01-01T13:25:23.357Z,64.54
2023-01-01T13:28:06.368Z,64.12
2023-01-01T13:30:50.562Z,68.47
2023-01-01T13:33:26.140Z,70.70
2023-01-01T13:36:33.146Z,71.36
2023-01-01T13:39:02.082Z,69.54
2023-01-01T13:41:30.926Z,69.38
2023-01-01T13:44:17.367Z,71.67
2023-01-01T13:46:56.512Z,72.29
2023-01-01T13:49:37.390Z,73.19
2023-01-01T13:52:29.296Z,72.76
2023-01-01T13:55:37.283Z,73.39
2023-01-01T13:58:36.701Z,74.68
2023-01-01T14:01:34.487Z,75.78
2023-01-01T14:04:06.576Z,76.76
2023-01-01T14:06:39.203Z,80.36
2023-01-01T14:09:13.345Z,82.06
2023-01-01T14:11:41.723Z,81.93
2023-01-01T14:14:24.045Z,83.04
2023-01-01T14:16:52.585Z,82.13
2023-01-01T14:19:20.230Z,83.94
2023-01-01T14:21:47.788Z,82.58
2023-01-01T14:24:20.953Z,84.20
2023-01-01T14:26:49.257Z,81.62
2023-01-01T14:29:27.307Z,80.88
2023-01-01T14:31:55.561Z,80.63
2023-01-01T14:34:26.841Z,81.81
2023-01-01T14:36:56.249Z,83.41
2023-01-01T14:39:30.003Z,87.73
2023-01-01T14:42:02.290Z,89.60
2023-01-01T14:44:35.715Z,90.59
2023-01-01T14:47:05.227Z,90.24
2023-01-01T14:49:35.866Z,91.24
2023-01-01T14:52:07.107Z,89.83
2023-01-01T14:54:39.254Z,88.09
2023-01-01T14:57:11.977Z,89.86
2023-01-01T14:59:46.684Z,90.02
2023-01-01T15:02:16.387Z,89.19
2023-01-01T15:04:44.772Z,91.15
2023-01-01T15:07:21.845Z,93.58
2023-01-01T15:09:50.786Z,93.48
2023-01-01T15:12:20.160Z,94.97
2023-01-01T15:14:48.652Z,97.16
2023-01-01T15:17:18.286Z,97.98
2023-01-01T15:19:47.799Z,99.91
2023-01-01T15:22:21.469Z,100.00
2023-01-01T15:24:50.868Z,100.00
2023-01-01T15:27:25.125Z,100.00
2023-01-01T15:29:53.181Z,100.00
2023-01-01T15:32:26.204Z,100.00
2023-01-01T15:34:55.422Z,100.00
2023-01-01T15:37:28.371Z,100.00
2023-01-01T15:40:00.559Z,100.00
2023-01-01T15:42:34.271Z,100.00
2023-01-01T15:45:22.655Z,100.00
2023-01-01T15:47:51.317Z,100.00
2023-01-01T15:50:25.601Z,100.00
2023-01-01T15:52:56.765Z,100.00
2023-01-01T15:55:27.498Z,100.00
2023-01-01T15:57:56.029Z,100.00
2023-01-01T16:00:26.129Z,100.00
2023-01-01T16:02:56.669Z,100.00
2023-01-01T16:05:26.818Z,100.00
2023-01-01T16:08:01.903Z,100.00
2023-01-01T16:10:31.739Z,100.00
2023-01-01T16:12:59.865Z,100.00
2023-01-01T16:15:27.781Z,100.00
2023-01-01T16:17:56.083Z,100.00
2023-01-01T16:20:25.248Z,100.00
2023-01-01T16:22:52.786Z,100.00
2023-01-01T16:25:22.472Z,100.00
2023-01-01T16:27:51.296Z,100.00
2023-01-01T16:30:18.977Z,100.00
2023-01-01T16:32:48.888Z,100.00
2023-01-01T16:35:16.780Z,100.00
2023-01-01T16:37:44.282Z,100.00
2023-01-01T16:40:12.137Z,100.00
2023-01-01T16:42:39.615Z,100.00
2023-01-01T16:45:14.072Z,100.00
2023-01-01T16:47:41.553Z,100.00
2023-01-01T16:50:10.598Z,100.00
2023-01-01T16:52:44.260Z,100.00
2023-01-01T16:55:12.804Z,100.00
2023-01-01T16:57:40.515Z,100.00
2023-01-01T17:00:11.465Z,100.00
2023-01-01T17:02:39.096Z,100.00
2023-01-01T17:05:07.170Z,100.00
2023-01-01T17:07:34.984Z,100.00
2023-01-01T17:10:02.744Z,100.00
2023-01-01T17:12:30.237Z,100.00
2023-01-01T17:14:57.726Z,100.00
2023-01-01T17:17:26.539Z,100.00
2023-01-01T17:19:54.023Z,100.00
2023-01-01T17:22:21.485Z,100.00
2023-01-01T17:24:48.962Z,100.00
2023-01-01T17:27:16.457Z,100.00
2023-01-01T17:29:44.004Z,100.00
2023-01-01T17:32:13.718Z,100.00
2023-01-01T17:34:42.535Z,100.00
2023-01-01T17:37:10.018Z,100.00
2023-01-01T17:39:37.511Z,100.00
2023-01-01T17:42:05.271Z,100.00
2023-01-01T17:44:32.774Z,100.00
2023-01-01T17:47:00.312Z,100.00
2023-01-01T17:49:27.797Z,100.00
2023-01-01T17:51:56.635Z,100.00
2023-01-01T17:54:24.132Z,100.00
2023-01-01T17:56:51.650Z,100.00
2023-01-01T17:59:19.317Z,100.00
2023-01-01T18:01:46.906Z,100.00
2023-01-01T18:04:14.435Z,100.00
2023-01-01T18:06:44.255Z,100.00
2023-01-01T18:09:16.234Z,100.00
2023-01-01T18:11:44.361Z,100.00
2023-01-01T18:14:13.621Z,100.00
2023-01-01T18:16:44.441Z,100.00
2023-01-01T18:19:12.016Z,100.00
2023-01-01T18:21:39.498Z,100.00
2023-01-01T18:24:11.950Z,100.00
2023-01-01T18:26:41.053Z,100.00
2023-01-01T18:29:08.667Z,100.00
2023-01-01T18:31:36.592Z,100.00
2023-01-01T18:34:04.648Z,100.00
2023-01-01T18:36:34.329Z,100.00
2023-01-01T18:39:03.181Z,100.00
2023-01-01T18:41:47.229Z,100.00
2023-01-01T18:44:20.688Z,100.00
2023-01-01T18:46:55.305Z,100.00
2023-01-01T18:49:23.780Z,100.00
2023-01-01T18:51:55.077Z,100.00
2023-01-01T18:54:22.763Z,100.00
2023-01-01T18:56:53.435Z,100.00
2023-01-01T18:59:22.954Z,100.00
2023-01-01T19:01:50.824Z,100.00
2023-01-01T19:04:19.627Z,100.00
2023-01-01T19:06:47.566Z,100.00
2023-01-01T19:09:20.826Z,100.00
2023-01-01T19:11:48.681Z,100.00
2023-01-01T19:14:20.042Z,100.00
2023-01-01T19:16:48.794Z,100.00
2023-01-01T19:19:20.001Z,100.00
2023-01-01T19:21:51.931Z,100.00
2023-01-01T19:24:23.360Z,100.00
2023-01-01T19:26:55.721Z,100.00
2023-01-01T19:29:26.017Z,100.00
2023-01-01T19:31:55.550Z,100.00
2023-01-01T19:34:23.936Z,100.00
2023-01-01T19:36:51.954Z,100.00
2023-01-01T19:39:19.999Z,100.00
2023-01-01T19:41:47.604Z,100.00
2023-01-01T19:44:19.883Z,100.00
2023-01-01T19:46:51.957Z,100.00
2023-01-01T19:49:19.540Z,100.00
2023-01-01T19:51:47.007Z,100.00
2023-01-01T19:54:14.497Z,100.00
2023-01-01T19:56:41.988Z,100.00
2023-01-01T19:59:09.518Z,100.00
2023-01-01T20:01:37.306Z,100.00
2023-01-01T20:04:06.465Z,100.00
2023-01-01T20:06:36.292Z,100.00
2023-01-01T20:09:04.463Z,100.00
2023-01-01T20:11:32.116Z,100.00
2023-01-01T20:14:00.001Z,100.00
2023-01-01T20:16:27.601Z,100.00
2023-01-01T20:18:55.132Z,100.00
2023-01-01T20:21:41.611Z,100.00
2023-01-01T20:24:10.960Z,100.00
2023-01-01T20:26:38.481Z,100.00
2023-01-01T20:29:21.043Z,100.00
2023-01-01T20:31:49.777Z,100.00
2023-01-01T20:34:17.571Z,100.00
2023-01-01T20:37:04.227Z,100.00
2023-01-01T20:39:32.272Z,100.00
2023-01-01T20:41:59.787Z,100.00
2023-01-01T20:44:27.668Z,100.00
2023-01-01T20:46:55.422Z,100.00
2023-01-01T20:49:23.390Z,100.00
2023-01-01T20:51:53.938Z,100.00
2023-01-01T20:54:23.458Z,100.00
2023-01-01T20:56:51.179Z,100.00
2023-01-01T20:59:34.957Z,100.00
2023-01-01T21:02:04.348Z,100.00
2023-01-01T21:04:32.052Z,100.00
2023-01-01T21:07:00.885Z,100.00
2023-01-01T21:09:28.381Z,100.00
2023-01-01T21:11:55.860Z,100.00
2023-01-01T21:14:25.633Z,100.00
2023-01-01T21:16:53.207Z,100.00
2023-01-01T21:19:26.267Z,100.00
2023-01-01T21:21:56.652Z,100.00
2023-01-01T21:24:27.904Z,100.00
2023-01-01T21:27:01.080Z,100.00
2023-01-01T21:29:33.967Z,100.00
2023-01-01T21:32:13.652Z,100.00
2023-01-01T21:34:42.760Z,100.00
2023-01-01T21:37:14.720Z,100.00
2023-01-01T21:39:43.555Z,100.00
2023-01-01T21:42:23.745Z,100.00
2023-01-01T21:44:56.742Z,100.00
2023-01-01T21:47:25.736Z,100.00
2023-01-01T21:49:56.705Z,100.00
2023-01-01T21:52:25.799Z,100.00
2023-01-01T21:54:55.641Z,100.00
2023-01-01T21:57:25.186Z,100.00
2023-01-01T21:59:54.106Z,100.00
2023-01-01T22:02:33.526Z,100.00
2023-01-01T22:05:03.491Z,100.00
2023-01-01T22:10:25.026Z,100.00
2023-01-01T22:12:56.966Z,100.00
2023-01-01T22:15:30.508Z,100.00
2023-01-01T22:18:16.103Z,100.00
2023-01-01T22:20:45.876Z,100.00
2023-01-01T22:23:35.695Z,100.00
2023-01-01T22:26:12.804Z,100.00
2023-01-01T22:28:44.084Z,100.00
2023-01-01T22:31:17.684Z,100.00
2023-01-01T22:33:47.811Z,100.00
2023-01-01T22:36:17.910Z,100.00
2023-01-01T22:38:45.720Z,100.00
2023-01-01T22:41:14.895Z,100.00
2023-01-01T22:43:44.336Z,100.00
2023-01-01T22:46:18.117Z,100.00
2023-01-01T22:48:45.888Z,100.00
2023-01-01T22:51:18.140Z,100.00
2023-01-01T22:53:46.248Z,100.00
2023-01-01T22:56:15.382Z,100.00
2023-01-01T22:58:43.007Z,100.00
2023-01-01T23:01:11.283Z,100.00
2023-01-01T23:03:38.847Z,100.00
2023-01-01T23:06:07.236Z,100.00
2023-01-01T23:08:34.728Z,100.00
2023-01-01T23:11:02.518Z,100.00
2023-01-01T23:13:49.219Z,100.00
2023-01-01T23:16:16.725Z,100.00
2023-01-01T23:18:44.270Z,100.00
2023-01-01T23:21:14.919Z,100.00
2023-01-01T23:23:42.737Z,100.00
2023-01-01T23:26:11.092Z,100.00
2023-01-01T23:28:40.076Z,100.00
2023-01-01T23:31:10.056Z,100.00
2023-01-01T23:33:37.976Z,100.00
2023-01-01T23:36:06.807Z,100.00
2023-01-01T23:38:34.611Z,100.00
2023-01-01T23:41:02.270Z,100.00
2023-01-01T23:43:29.780Z,100.00
2023-01-01T23:45:58.844Z,100.00
2023-01-01T23:48:26.392Z,100.00
2023-01-01T23:50:53.886Z,100.00
2023-01-01T23:53:21.379Z,100.00
2023-01-01T23:55:48.898Z,100.00
2023-01-01T23:58:17.084Z,100.00
